Gussing, Austria
Current Conditions -  °F | °C
As of 5:50 PM on Tuesday 27 Jan 2015 (Local Time) from LOWG Reporting Station
Broken Clouds Broken Clouds  
Wind Chill: 32°   Ceiling: 14000
Heat Index: 32°   Visibility: 6mi
Dew Point: 28°   Wind: 3mph
Humidity: 87%   Direction: 260°W
Pressure: 29.97"   Gusts: NA
Location:  47.06°N, 16.32°E
Report Text: LOWG 271650Z 26003KT 9999 FEW060 BKN140 M00/M02 Q1015 R17/1///95 NOSIG
Loading
Personal Weather Stations






























Interactive Weather Map New forecast layout! Learn more

10-Day Weather Forecast

Advertisements
Track Severe Weather on mobile